createdAt,value
2019-06-08T08:27:43.400Z,971.59
2019-06-08T08:28:43.314Z,971.53
2019-06-08T08:29:43.265Z,971.51
2019-06-08T08:30:43.220Z,971.50
2019-06-08T08:31:43.176Z,971.53
2019-06-08T08:32:43.129Z,971.50
2019-06-08T08:33:43.108Z,971.52
2019-06-08T08:34:43.040Z,971.54
2019-06-08T08:35:42.997Z,971.48
2019-06-08T08:36:42.955Z,971.51
2019-06-08T08:37:42.911Z,971.63
2019-06-08T08:38:42.871Z,971.54
2019-06-08T08:39:42.857Z,971.58
2019-06-08T09:22:23.474Z,972.02
2019-06-08T09:23:23.409Z,972.07
2019-06-08T09:24:23.441Z,972.05
2019-06-08T09:25:23.339Z,972.01
2019-06-08T09:26:23.305Z,972.12
2019-06-08T09:27:23.254Z,972.14
2019-06-08T09:28:23.252Z,972.53
2019-06-08T09:29:23.197Z,972.56
2019-06-08T09:30:23.295Z,972.63
2019-06-08T09:31:23.153Z,972.77
2019-06-08T09:32:23.079Z,972.81
2019-06-08T09:33:23.070Z,972.76
2019-06-08T09:34:23.010Z,972.70
2019-06-08T09:35:22.977Z,972.67
2019-06-08T09:36:22.982Z,972.74
2019-06-08T09:37:22.932Z,972.83
2019-06-08T09:38:22.878Z,972.87
2019-06-08T09:39:22.849Z,972.81
2019-06-08T09:40:22.818Z,972.77
2019-06-08T09:41:22.829Z,972.65
2019-06-08T09:42:22.782Z,972.75
2019-06-08T09:43:22.724Z,972.73
2019-06-08T09:44:22.693Z,972.77
2019-06-08T09:45:22.668Z,972.72
2019-06-08T09:46:22.634Z,972.70
2019-06-08T09:47:22.604Z,972.85
2019-06-08T09:48:22.654Z,972.79
2019-06-08T09:49:22.544Z,972.72
2019-06-08T09:50:22.524Z,972.73
2019-06-08T09:51:22.487Z,972.70
2019-06-08T09:52:22.462Z,972.73
2019-06-08T09:53:28.546Z,972.71
2019-06-08T09:54:22.430Z,972.86
2019-06-08T09:55:22.379Z,972.75
2019-06-08T09:56:22.352Z,972.79
2019-06-08T09:57:22.322Z,972.93
2019-06-08T09:58:22.294Z,972.84
2019-06-08T09:59:22.270Z,972.82
2019-06-08T10:00:25.735Z,972.76
2019-06-08T10:01:22.216Z,972.70
2019-06-08T10:02:22.188Z,972.72
2019-06-08T10:03:22.176Z,972.81
2019-06-08T10:04:25.443Z,972.79
2019-06-08T10:05:22.112Z,972.75
2019-06-08T10:06:22.113Z,972.77
2019-06-08T10:07:22.069Z,972.77
2019-06-08T10:08:22.032Z,972.76
2019-06-08T10:09:22.007Z,972.66
2019-06-08T10:10:21.989Z,972.61
2019-06-08T10:11:21.958Z,972.62
2019-06-08T10:12:21.974Z,972.58
2019-06-08T10:13:21.907Z,972.61
2019-06-08T10:14:21.883Z,972.62
2019-06-08T10:15:21.861Z,972.74
2019-06-08T10:16:21.922Z,972.68
2019-06-08T10:17:21.830Z,972.68
2019-06-08T10:18:21.808Z,972.71
2019-06-08T10:19:21.761Z,972.87
2019-06-08T10:20:21.731Z,972.80
2019-06-08T10:21:21.724Z,972.74
2019-06-08T10:22:21.683Z,972.65
2019-06-08T10:23:30.939Z,972.73
2019-06-08T10:24:21.670Z,972.77
2019-06-08T10:25:21.613Z,972.79
2019-06-08T10:26:21.597Z,972.71
2019-06-08T10:27:21.565Z,972.63
2019-06-08T10:28:21.903Z,972.66
2019-06-08T10:29:21.515Z,972.72
2019-06-08T10:30:21.531Z,972.81
2019-06-08T10:31:35.521Z,972.77
2019-06-08T10:32:21.462Z,972.74
2019-06-08T10:33:21.421Z,972.62
2019-06-08T10:34:21.396Z,972.62
2019-06-08T10:35:21.371Z,972.62
2019-06-08T10:36:21.382Z,972.65
2019-06-08T10:37:21.324Z,972.65
2019-06-08T10:38:21.577Z,972.65
2019-06-08T10:39:21.293Z,972.66
2019-06-08T10:40:21.260Z,972.58
2019-06-08T10:41:21.852Z,972.66
2019-06-08T10:42:21.210Z,972.64
2019-06-08T10:43:21.189Z,972.59
2019-06-08T10:44:21.212Z,972.64
2019-06-08T10:45:21.149Z,972.69
2019-06-08T10:46:21.187Z,972.68
2019-06-08T10:47:21.103Z,972.63
2019-06-08T10:48:21.089Z,972.65
2019-06-08T10:49:21.086Z,972.63
2019-06-08T10:50:21.066Z,972.58
2019-06-08T10:51:21.017Z,972.73
2019-06-08T10:52:21.005Z,972.62
2019-06-08T10:53:20.969Z,972.57
2019-06-08T10:54:20.957Z,972.60
2019-06-08T10:55:20.927Z,972.59
2019-06-08T10:56:20.944Z,972.57
2019-06-08T10:57:20.883Z,972.60
2019-06-08T10:58:20.860Z,972.55
2019-06-08T10:59:20.853Z,972.51
2019-06-08T11:00:23.893Z,972.53
2019-06-08T11:01:20.796Z,972.54
2019-06-08T11:02:20.977Z,972.49
2019-06-08T11:03:20.756Z,972.50
2019-06-08T11:04:20.736Z,972.40
2019-06-08T11:05:20.716Z,972.43
2019-06-08T11:06:20.698Z,972.50
2019-06-08T11:07:20.674Z,972.48
2019-06-08T11:08:20.685Z,972.51
2019-06-08T11:09:20.836Z,972.45
2019-06-08T11:10:20.607Z,972.58
2019-06-08T11:11:48.099Z,972.52
2019-06-08T11:12:48.559Z,972.42
2019-06-08T11:13:50.059Z,972.38
2019-06-08T11:14:48.130Z,972.35
2019-06-08T11:15:48.103Z,972.36
2019-06-08T11:16:47.632Z,972.41
2019-06-08T11:17:47.423Z,972.44
2019-06-08T11:18:50.689Z,972.37
2019-06-08T11:19:48.020Z,972.38
2019-06-08T11:20:47.883Z,972.38
2019-06-08T11:21:48.229Z,972.48
2019-06-08T11:22:49.754Z,972.40
2019-06-08T11:24:04.527Z,972.39
2019-06-08T11:24:48.589Z,972.43
2019-06-08T11:25:48.867Z,972.45
2019-06-08T11:26:47.866Z,972.41
2019-06-08T11:27:47.537Z,972.41
2019-06-08T11:28:50.822Z,972.46
2019-06-08T11:29:47.726Z,972.44
2019-06-08T11:30:48.087Z,972.43
2019-06-08T11:31:48.413Z,972.40
2019-06-08T11:32:48.042Z,972.39
2019-06-08T11:33:48.840Z,972.49
2019-06-08T11:34:48.822Z,972.38
2019-06-08T11:37:26.120Z,972.39
2019-06-08T11:38:28.714Z,972.43
2019-06-08T11:39:28.564Z,972.43
2019-06-08T11:40:27.798Z,972.43
2019-06-08T11:41:27.840Z,972.33
2019-06-08T11:42:28.480Z,972.32
2019-06-08T11:43:28.556Z,972.38
2019-06-08T11:44:27.619Z,972.34
2019-06-08T11:45:25.979Z,972.28
2019-06-08T11:46:28.053Z,972.30
2019-06-08T11:47:27.749Z,972.24
2019-06-08T11:48:28.389Z,972.20
2019-06-08T11:49:27.709Z,972.27
2019-06-08T11:50:25.822Z,972.33
2019-06-08T11:51:29.642Z,972.29
2019-06-08T11:52:26.434Z,972.39
2019-06-08T11:53:25.761Z,972.40
2019-06-08T11:54:34.281Z,972.35
2019-06-08T11:55:28.005Z,972.33
2019-06-08T11:56:25.697Z,972.31
2019-06-08T11:57:28.203Z,972.36
2019-06-08T11:58:28.226Z,972.38
2019-06-08T11:59:25.641Z,972.34
2019-06-08T12:00:30.697Z,972.35
2019-06-08T12:01:27.544Z,972.29
2019-06-08T12:02:25.577Z,972.31
2019-06-08T12:03:27.692Z,972.35
2019-06-08T12:04:25.534Z,972.28
2019-06-08T12:05:27.755Z,972.30
2019-06-08T12:06:25.496Z,972.30
2019-06-08T12:07:25.476Z,972.32
2019-06-08T12:08:28.167Z,972.27
2019-06-08T12:09:25.470Z,972.33
2019-06-08T12:10:25.416Z,972.31
2019-06-08T12:11:25.396Z,972.27
2019-06-08T12:12:25.373Z,972.23
2019-06-08T12:13:27.532Z,972.26
2019-06-08T12:14:25.337Z,972.29
2019-06-08T12:15:25.361Z,972.29
2019-06-08T12:16:25.297Z,972.27
2019-06-08T12:17:27.161Z,972.25
2019-06-08T12:18:25.256Z,972.25
2019-06-08T12:19:25.245Z,972.22
2019-06-08T12:20:27.843Z,972.26
2019-06-08T12:21:27.248Z,972.22
2019-06-08T12:22:25.175Z,972.24
2019-06-08T12:23:25.159Z,972.21
2019-06-08T12:24:40.552Z,972.20
2019-06-08T12:25:25.116Z,972.26
2019-06-08T12:26:25.100Z,972.22
2019-06-08T12:27:33.208Z,972.20
2019-06-08T12:28:25.057Z,972.19
2019-06-08T12:29:25.038Z,972.23
2019-06-08T12:30:26.214Z,972.24
2019-06-08T12:31:25.006Z,972.24
2019-06-08T12:32:24.980Z,972.22
2019-06-08T12:33:25.010Z,972.13
2019-06-08T12:34:24.943Z,972.16
2019-06-08T12:35:24.925Z,972.14
2019-06-08T12:36:24.901Z,972.18
2019-06-08T12:37:24.884Z,972.11
2019-06-08T12:38:24.866Z,972.20
2019-06-08T12:39:24.871Z,972.19
2019-06-08T12:40:24.827Z,972.21
2019-06-08T12:41:24.806Z,972.17
2019-06-08T12:42:25.140Z,972.14
2019-06-08T12:43:24.765Z,972.06
2019-06-08T12:44:26.790Z,972.08
2019-06-08T12:45:24.761Z,972.04
2019-06-08T12:46:24.707Z,972.04
2019-06-08T12:47:26.655Z,972.00
2019-06-08T12:48:25.425Z,972.02
2019-06-08T12:49:24.652Z,972.01
2019-06-08T12:50:24.630Z,972.02
2019-06-08T12:51:24.648Z,972.03
2019-06-08T12:52:24.596Z,971.95
2019-06-08T12:53:24.572Z,971.90
2019-06-08T12:54:24.548Z,971.88
2019-06-08T12:55:25.438Z,971.91
2019-06-08T12:56:24.506Z,971.85
2019-06-08T12:57:24.526Z,971.86
2019-06-08T12:58:24.468Z,971.87
2019-06-08T12:59:24.455Z,971.84
2019-06-08T13:00:24.429Z,971.85
2019-06-08T13:01:24.414Z,971.87
2019-06-08T13:02:24.502Z,971.94
2019-06-08T13:03:24.412Z,971.97
2019-06-08T13:04:24.361Z,971.84
2019-06-08T13:05:24.328Z,971.89
2019-06-08T13:06:24.314Z,971.87
2019-06-08T13:07:24.288Z,971.84
2019-06-08T13:08:24.275Z,971.89
2019-06-08T13:09:24.288Z,971.83
2019-06-08T13:10:24.410Z,971.85
2019-06-08T13:11:24.207Z,971.84
2019-06-08T13:12:24.192Z,971.84
2019-06-08T13:13:24.611Z,971.80
2019-06-08T13:14:24.598Z,971.84
2019-06-08T13:15:24.128Z,971.85
2019-06-08T13:16:24.678Z,971.87
2019-06-08T13:17:24.088Z,971.85
2019-06-08T13:18:24.071Z,971.90
2019-06-08T13:19:24.052Z,971.86
2019-06-08T13:20:24.027Z,971.80
2019-06-08T13:21:34.132Z,971.93
2019-06-08T13:22:27.948Z,971.84
2019-06-08T13:23:23.969Z,971.84
2019-06-08T13:24:23.947Z,971.85
2019-06-08T13:26:27.838Z,971.80
2019-06-08T13:27:23.892Z,971.79
2019-06-08T13:28:25.540Z,971.74
2019-06-08T13:29:23.844Z,971.78
2019-06-08T13:30:26.161Z,971.75
2019-06-08T13:31:24.777Z,971.77
2019-06-08T13:32:23.781Z,971.81
2019-06-08T13:33:23.761Z,971.86
2019-06-08T13:34:24.433Z,971.82
2019-06-08T13:35:23.715Z,971.92
2019-06-08T13:36:26.259Z,971.94
2019-06-08T13:37:23.707Z,971.89
2019-06-08T13:38:23.659Z,971.89
2019-06-08T13:39:23.625Z,971.89
2019-06-08T13:40:23.766Z,971.84
2019-06-08T13:41:26.335Z,971.85
2019-06-08T13:42:23.594Z,971.84
2019-06-08T13:43:23.545Z,971.88
2019-06-08T13:44:23.515Z,971.85
2019-06-08T13:45:23.578Z,971.88
2019-06-08T13:46:23.701Z,971.67
2019-06-08T13:47:23.476Z,971.91
2019-06-08T13:48:23.449Z,971.89
2019-06-08T13:49:26.783Z,971.87
2019-06-08T13:50:23.991Z,971.84
2019-06-08T13:51:24.357Z,971.82
2019-06-08T13:52:24.135Z,971.84
2019-06-08T13:53:28.493Z,971.80
2019-06-08T13:54:24.330Z,971.80
2019-06-08T13:55:42.225Z,971.81
2019-06-08T13:56:24.078Z,971.78
2019-06-08T13:57:24.965Z,971.82
2019-06-08T13:58:32.110Z,971.80
2019-06-08T13:59:26.296Z,971.77
2019-06-08T14:00:23.664Z,971.81
2019-06-08T14:01:23.805Z,971.76
2019-06-08T14:02:28.146Z,971.77
2019-06-08T14:03:24.209Z,971.70
2019-06-08T14:04:23.733Z,971.79
2019-06-08T14:05:27.696Z,971.59
2019-06-08T14:06:23.734Z,971.63
2019-06-08T14:07:28.490Z,971.46
2019-06-08T14:08:24.160Z,971.57
2019-06-08T14:09:23.322Z,971.70
2019-06-08T14:10:24.108Z,971.53
2019-06-08T14:11:24.075Z,971.57
2019-06-08T14:12:24.261Z,971.61
2019-06-08T14:13:27.861Z,971.49
2019-06-08T14:14:24.037Z,971.46
2019-06-08T14:15:23.420Z,971.47
2019-06-08T14:16:24.798Z,971.48
2019-06-08T14:17:24.198Z,971.49
2019-06-08T14:18:26.289Z,971.32
2019-06-08T14:19:24.422Z,971.34
2019-06-08T14:20:24.211Z,971.47
2019-06-08T14:21:31.938Z,971.50
2019-06-08T14:22:24.255Z,971.49
2019-06-08T14:23:23.140Z,971.51
2019-06-08T14:24:27.454Z,971.53
2019-06-08T14:25:23.386Z,971.60
2019-06-08T14:26:23.220Z,971.69
2019-06-08T14:27:23.476Z,971.75
2019-06-08T14:28:23.268Z,971.70
2019-06-08T14:29:23.263Z,971.64
2019-06-08T14:30:23.513Z,971.64
2019-06-08T14:31:23.984Z,971.65
2019-06-08T14:32:22.468Z,971.66
2019-06-08T14:33:25.884Z,971.66
2019-06-08T14:34:23.664Z,971.63
2019-06-08T14:35:23.807Z,971.60
2019-06-08T14:36:23.252Z,971.60
2019-06-08T14:37:22.874Z,971.62
2019-06-08T14:38:25.698Z,971.65
2019-06-08T14:39:23.073Z,971.65
2019-06-08T14:40:23.405Z,971.64
2019-06-08T14:41:22.780Z,971.63
2019-06-08T14:42:25.989Z,971.56
2019-06-08T14:43:23.008Z,971.43
2019-06-08T14:44:22.705Z,971.39
2019-06-08T14:45:22.728Z,971.34
2019-06-08T14:46:23.145Z,971.29
2019-06-08T14:47:22.778Z,971.27
2019-06-08T14:48:25.546Z,971.27
2019-06-08T14:49:26.481Z,971.25
2019-06-08T14:50:22.926Z,971.22
2019-06-08T14:51:22.382Z,971.21
2019-06-08T14:52:22.683Z,971.21
2019-06-08T14:53:22.963Z,971.21
2019-06-08T14:54:26.279Z,971.22
2019-06-08T14:55:23.193Z,971.20
2019-06-08T14:56:22.846Z,971.19
2019-06-08T14:57:21.877Z,971.22
2019-06-08T14:58:26.320Z,971.19
2019-06-08T14:59:22.031Z,971.12
2019-06-08T15:00:22.970Z,971.08
2019-06-08T15:01:22.749Z,971.08
2019-06-08T15:02:21.724Z,971.02
2019-06-08T15:03:21.732Z,971.01
2019-06-08T15:04:23.865Z,971.01
2019-06-08T15:05:21.665Z,971.00
2019-06-08T15:06:21.625Z,971.05
2019-06-08T15:07:24.601Z,971.09
2019-06-08T15:08:21.816Z,971.01
2019-06-08T15:09:23.472Z,971.01
2019-06-08T15:10:21.739Z,970.97
2019-06-08T15:11:21.502Z,970.99
2019-06-08T15:12:21.514Z,970.91
2019-06-08T15:13:21.844Z,970.86
2019-06-08T15:14:21.602Z,970.90
2019-06-08T15:15:21.586Z,970.92
2019-06-08T15:16:21.599Z,970.91
2019-06-08T15:17:21.822Z,970.91
2019-06-08T15:18:21.821Z,970.91
2019-06-08T15:19:22.155Z,970.94
2019-06-08T15:20:21.946Z,970.92
2019-06-08T15:21:23.081Z,970.90
2019-06-08T15:22:22.247Z,970.88
2019-06-08T15:23:22.879Z,970.90
2019-06-08T15:24:21.179Z,970.91
2019-06-08T15:25:21.159Z,970.90
2019-06-08T15:26:29.862Z,970.92
2019-06-08T15:27:22.717Z,970.90
2019-06-08T15:28:21.082Z,970.93
2019-06-08T15:29:21.055Z,970.96
2019-06-08T15:30:21.110Z,970.89
2019-06-08T15:31:21.130Z,970.88
2019-06-08T15:32:20.978Z,970.91
2019-06-08T15:33:21.529Z,970.87
2019-06-08T15:34:21.225Z,970.87
2019-06-08T15:35:21.081Z,970.91
2019-06-08T15:36:22.073Z,970.87
2019-06-08T15:37:21.158Z,970.80
2019-06-08T15:38:22.128Z,970.78
2019-06-08T15:39:21.654Z,970.78
2019-06-08T15:40:21.523Z,970.76
2019-06-08T15:41:21.418Z,970.76
2019-06-08T15:42:21.963Z,970.76
2019-06-08T15:43:21.943Z,970.72
2019-06-08T15:44:23.133Z,970.69
2019-06-08T15:45:20.647Z,970.72
2019-06-08T15:46:20.630Z,970.68
2019-06-08T15:47:20.599Z,970.66
2019-06-08T15:48:20.577Z,970.70
2019-06-08T15:49:20.547Z,970.65
2019-06-08T15:50:20.554Z,970.64
2019-06-08T15:51:20.492Z,970.60
2019-06-08T15:52:20.499Z,970.63
2019-06-08T15:53:20.442Z,970.60
2019-06-08T15:54:20.414Z,970.62
2019-06-08T15:55:20.434Z,970.59
2019-06-08T15:56:32.757Z,970.54
2019-06-08T15:57:20.378Z,970.51
2019-06-08T15:58:20.305Z,970.49
2019-06-08T15:59:20.281Z,970.53
2019-06-08T16:00:20.250Z,970.51
2019-06-08T16:01:20.225Z,970.49
2019-06-08T16:02:20.202Z,970.48
2019-06-08T16:03:20.224Z,970.51
2019-06-08T16:04:20.140Z,970.50
2019-06-08T16:05:20.134Z,970.53
2019-06-08T16:06:20.085Z,970.51
2019-06-08T16:07:20.076Z,970.56
2019-06-08T16:08:20.062Z,970.55
2019-06-08T16:09:20.005Z,970.55
2019-06-08T16:10:19.979Z,970.54
2019-06-08T16:11:19.947Z,970.57
2019-06-08T16:12:19.926Z,970.57
2019-06-08T16:13:19.895Z,970.49
2019-06-08T16:14:19.911Z,970.52
2019-06-08T16:15:19.837Z,970.51
2019-06-08T16:16:19.810Z,970.54
2019-06-08T16:17:19.786Z,970.51
2019-06-08T16:18:19.753Z,970.48
2019-06-08T16:19:19.761Z,970.53
2019-06-08T16:20:19.698Z,970.53
2019-06-08T16:21:19.672Z,970.52
2019-06-08T16:22:19.642Z,970.54
2019-06-08T16:23:19.618Z,970.56
2019-06-08T16:24:19.591Z,970.53
2019-06-08T16:25:19.592Z,970.56
2019-06-08T16:26:19.534Z,970.51
2019-06-08T16:27:19.498Z,970.51
2019-06-08T16:28:19.475Z,970.46
2019-06-08T16:29:19.442Z,970.46
2019-06-08T16:30:19.414Z,970.44
2019-06-08T16:31:19.448Z,970.43
2019-06-08T16:32:19.360Z,970.45
2019-06-08T16:33:19.326Z,970.48
2019-06-08T16:34:19.303Z,970.49
2019-06-08T16:35:19.309Z,970.52
2019-06-08T16:36:19.242Z,970.52
2019-06-08T16:37:19.206Z,970.52
2019-06-08T16:38:19.176Z,970.48
2019-06-08T16:39:19.149Z,970.48
2019-06-08T16:40:19.152Z,970.52
2019-06-08T16:41:19.092Z,970.53
2019-06-08T16:42:19.062Z,970.54
2019-06-08T16:43:19.034Z,970.53
2019-06-08T16:44:18.999Z,970.50
2019-06-08T16:45:19.010Z,970.55
2019-06-08T16:46:18.942Z,970.50
2019-06-08T16:47:18.913Z,970.56
2019-06-08T16:48:18.881Z,970.56
2019-06-08T16:49:18.871Z,970.52
2019-06-08T16:50:24.415Z,970.49
2019-06-08T16:51:18.814Z,970.51
2019-06-08T16:52:18.777Z,970.53
2019-06-08T16:53:18.727Z,970.53
2019-06-08T16:54:18.701Z,970.47
2019-06-08T16:55:18.663Z,970.48
2019-06-08T16:56:18.637Z,970.48
2019-06-08T16:57:18.638Z,970.43
2019-06-08T16:58:18.575Z,970.43
2019-06-08T16:59:18.540Z,970.50
2019-06-08T17:00:30.745Z,970.50
2019-06-08T17:01:18.484Z,970.47
2019-06-08T17:02:18.447Z,970.51
2019-06-08T17:03:18.415Z,970.50
2019-06-08T17:04:18.384Z,970.51
2019-06-08T17:05:18.382Z,970.50
2019-06-08T17:06:18.323Z,970.49
2019-06-08T17:07:18.287Z,970.46
2019-06-08T17:08:18.254Z,970.47
2019-06-08T17:09:18.227Z,970.44
2019-06-08T17:10:18.223Z,970.43
2019-06-08T17:11:18.156Z,970.42
2019-06-08T17:12:18.122Z,970.40
2019-06-08T17:13:18.090Z,970.40
2019-06-08T17:14:18.060Z,970.41
2019-06-08T17:15:18.071Z,970.43
2019-06-08T17:16:17.990Z,970.41
2019-06-08T17:17:17.957Z,970.41
2019-06-08T17:18:17.922Z,970.41
2019-06-08T17:19:17.889Z,970.38
2019-06-08T17:20:17.855Z,970.34
2019-06-08T17:21:18.018Z,970.38
2019-06-08T17:22:17.785Z,970.35
2019-06-08T17:23:17.749Z,970.36
2019-06-08T17:24:17.718Z,970.39
2019-06-08T17:25:17.689Z,970.35
2019-06-08T17:26:17.649Z,970.33
2019-06-08T17:27:26.639Z,970.33
2019-06-08T17:28:17.749Z,970.32
2019-06-08T17:29:17.596Z,970.35
2019-06-08T17:30:17.508Z,970.36
2019-06-08T17:31:17.479Z,970.33
2019-06-08T17:32:17.438Z,970.30
2019-06-08T17:33:17.458Z,970.33
2019-06-08T17:34:20.446Z,970.34
2019-06-08T17:35:17.335Z,970.36
2019-06-08T17:36:17.300Z,970.29
2019-06-08T17:37:17.265Z,970.26
2019-06-08T17:38:17.228Z,970.28
2019-06-08T17:39:17.233Z,970.24
2019-06-08T17:40:17.155Z,970.33
2019-06-08T17:41:17.126Z,970.25
2019-06-08T17:42:17.087Z,970.31
2019-06-08T17:43:17.056Z,970.30
2019-06-08T17:44:17.047Z,970.26
2019-06-08T17:45:16.983Z,970.26
2019-06-08T17:46:16.980Z,970.29
2019-06-08T17:47:16.910Z,970.25
2019-06-08T17:48:16.874Z,970.26
2019-06-08T17:49:16.839Z,970.25
2019-06-08T17:50:16.802Z,970.25
2019-06-08T17:51:16.802Z,970.25
2019-06-08T17:52:16.729Z,970.28
2019-06-08T17:53:16.692Z,970.26
2019-06-08T17:54:16.660Z,970.27
2019-06-08T17:55:16.646Z,970.26
2019-06-08T17:56:16.597Z,970.27
2019-06-08T17:57:16.581Z,970.28
2019-06-08T17:58:16.521Z,970.28
2019-06-08T17:59:16.480Z,970.27
2019-06-08T18:00:16.525Z,970.30
2019-06-08T18:01:16.405Z,970.28
2019-06-08T18:02:25.410Z,970.33
2019-06-08T18:03:17.245Z,970.34
2019-06-08T18:04:17.530Z,970.28
2019-06-08T18:05:17.947Z,970.25
2019-06-08T18:06:17.936Z,970.25
2019-06-08T18:07:17.114Z,970.25
2019-06-08T18:08:17.474Z,970.22
2019-06-08T18:09:17.805Z,970.19
2019-06-08T18:10:17.936Z,970.25
2019-06-08T18:11:17.347Z,970.19
2019-06-08T18:12:18.138Z,970.20
2019-06-08T18:13:18.288Z,970.25
2019-06-08T18:14:18.109Z,970.25
2019-06-08T18:15:17.506Z,970.26
2019-06-08T18:16:17.484Z,970.25
2019-06-08T18:17:17.757Z,970.26
2019-06-08T18:18:17.629Z,970.31
2019-06-08T18:19:17.193Z,970.31
2019-06-08T18:20:17.830Z,970.33
2019-06-08T18:21:17.576Z,970.32
2019-06-08T18:22:18.371Z,970.32
2019-06-08T18:23:17.334Z,970.30
2019-06-08T18:24:17.533Z,970.34
2019-06-08T18:25:17.377Z,970.30
2019-06-08T18:26:17.244Z,970.31
2019-06-08T18:27:18.077Z,970.29
2019-06-08T18:28:17.269Z,970.30
2019-06-08T18:29:15.395Z,970.31
2019-06-08T18:30:15.341Z,970.31
2019-06-08T18:31:15.373Z,970.31
2019-06-08T18:32:15.293Z,970.25
2019-06-08T18:33:15.234Z,970.30
2019-06-08T18:34:17.612Z,970.24
2019-06-08T18:35:15.203Z,970.24
2019-06-08T18:36:16.985Z,970.28
2019-06-08T18:37:15.079Z,970.23
2019-06-08T18:38:15.036Z,970.24
2019-06-08T18:39:15.005Z,970.27
2019-06-08T18:40:15.585Z,970.30
2019-06-08T18:41:14.978Z,970.31
2019-06-08T18:42:14.886Z,970.34
2019-06-08T18:43:16.929Z,970.30
2019-06-08T18:44:17.254Z,970.32
2019-06-08T18:45:14.771Z,970.31
2019-06-08T18:46:14.743Z,970.28
2019-06-08T18:47:14.777Z,970.28
2019-06-08T18:48:14.655Z,970.31
2019-06-08T18:49:14.831Z,970.28
2019-06-08T18:50:14.578Z,970.27
2019-06-08T18:51:14.571Z,970.28
2019-06-08T18:52:14.501Z,970.34
2019-06-08T18:53:14.460Z,970.29
2019-06-08T18:54:15.150Z,970.32
2019-06-08T18:55:14.388Z,970.35
2019-06-08T18:56:14.375Z,970.30
2019-06-08T18:57:14.306Z,970.37
2019-06-08T18:58:22.100Z,970.34
2019-06-08T18:59:14.227Z,970.35
2019-06-08T19:00:14.189Z,970.34
2019-06-08T19:01:14.315Z,970.30
2019-06-08T19:02:14.110Z,970.31
2019-06-08T19:03:14.074Z,970.30
2019-06-08T19:04:14.032Z,970.32
2019-06-08T19:05:13.996Z,970.33
2019-06-08T19:06:13.955Z,970.32
2019-06-08T19:07:13.945Z,970.30
2019-06-08T19:08:13.879Z,970.28
2019-06-08T19:09:13.838Z,970.25
2019-06-08T19:10:13.795Z,970.27
2019-06-08T19:11:13.757Z,970.30
2019-06-08T19:12:13.741Z,970.30
2019-06-08T19:13:13.689Z,970.30
2019-06-08T19:14:13.638Z,970.36
2019-06-08T19:15:13.602Z,970.34
2019-06-08T19:16:14.556Z,970.37
2019-06-08T19:17:13.517Z,970.35
2019-06-08T19:18:13.518Z,970.36
2019-06-08T19:19:13.438Z,970.38
2019-06-08T19:20:13.402Z,970.37
2019-06-08T19:21:13.358Z,970.39
2019-06-08T19:22:13.358Z,970.42
2019-06-08T19:23:13.278Z,970.43
2019-06-08T19:24:13.242Z,970.43
2019-06-08T19:25:13.200Z,970.43
2019-06-08T19:26:13.164Z,970.46
2019-06-08T19:27:13.118Z,970.46
2019-06-08T19:28:13.126Z,970.50
2019-06-08T19:29:13.038Z,970.50
2019-06-08T19:30:13.006Z,970.53
2019-06-08T19:31:12.964Z,970.52
2019-06-08T19:32:12.918Z,970.56
2019-06-08T19:33:12.881Z,970.57
2019-06-08T19:34:12.869Z,970.59
2019-06-08T19:35:12.797Z,970.57
2019-06-08T19:36:12.757Z,970.55
2019-06-08T19:37:12.733Z,970.57
2019-06-08T19:38:12.675Z,970.57
2019-06-08T19:39:12.636Z,970.54
2019-06-08T19:40:12.674Z,970.55
2019-06-08T19:41:12.555Z,970.62
2019-06-08T19:42:12.512Z,970.61
2019-06-08T19:43:12.507Z,970.59
2019-06-08T19:44:12.430Z,970.58
2019-06-08T19:45:12.397Z,970.60
2019-06-08T19:46:12.351Z,970.61
2019-06-08T19:47:12.306Z,970.61
2019-06-08T19:48:12.271Z,970.62
2019-06-08T19:49:12.271Z,970.59
2019-06-08T19:50:13.186Z,970.60
2019-06-08T19:51:12.342Z,970.63
2019-06-08T19:52:12.108Z,970.61
2019-06-08T19:53:12.066Z,970.59
2019-06-08T19:54:12.024Z,970.62
2019-06-08T19:55:11.980Z,970.63
2019-06-08T19:56:11.942Z,970.65
2019-06-08T19:57:11.932Z,970.66
2019-06-08T19:58:11.858Z,970.69
2019-06-08T19:59:11.815Z,970.71
2019-06-08T20:00:11.776Z,970.75
2019-06-08T20:01:11.734Z,970.76
2019-06-08T20:02:11.724Z,970.79
2019-06-08T20:03:11.650Z,970.74
2019-06-08T20:04:11.612Z,970.75
2019-06-08T20:05:11.576Z,970.79
2019-06-08T20:06:14.223Z,970.78
2019-06-08T20:07:11.529Z,970.79
2019-06-08T20:08:11.445Z,970.81
2019-06-08T20:09:11.403Z,970.80
2019-06-08T20:10:11.363Z,970.79
2019-06-08T20:11:11.320Z,970.81
2019-06-08T20:12:11.320Z,970.83
2019-06-08T20:13:11.242Z,970.88
2019-06-08T20:14:11.197Z,970.92
2019-06-08T20:15:11.152Z,970.89
2019-06-08T20:16:11.113Z,970.90
2019-06-08T20:17:11.106Z,970.89
2019-06-08T20:18:11.032Z,970.91
2019-06-08T20:19:10.988Z,970.91
2019-06-08T20:20:11.366Z,970.94
2019-06-08T20:21:10.905Z,970.90
2019-06-08T20:22:10.883Z,970.89
2019-06-08T20:23:10.843Z,970.90
2019-06-08T20:24:10.784Z,970.90
2019-06-08T20:25:10.827Z,970.89
2019-06-08T20:26:10.695Z,970.95
2019-06-08T20:27:10.657Z,970.94
2019-06-08T20:28:10.619Z,970.94
2019-06-08T20:29:16.021Z,970.98
2019-06-08T20:30:12.348Z,971.00
2019-06-08T20:31:10.487Z,971.03
2019-06-08T20:32:10.470Z,971.02
2019-06-08T20:33:10.405Z,971.02
2019-06-08T20:34:10.367Z,971.02
2019-06-08T20:35:10.351Z,971.07
2019-06-08T20:36:10.277Z,971.08
2019-06-08T20:37:10.273Z,971.07
2019-06-08T20:38:10.192Z,971.04
2019-06-08T20:39:10.151Z,971.04
2019-06-08T20:40:13.841Z,970.99
2019-06-08T20:41:10.065Z,970.99
2019-06-08T20:42:11.998Z,971.01
2019-06-08T20:43:09.981Z,970.99
2019-06-08T20:44:09.946Z,970.97
2019-06-08T20:45:09.899Z,970.97
2019-06-08T20:46:09.859Z,970.99
2019-06-08T20:47:09.813Z,971.00
2019-06-08T20:48:09.800Z,971.00
2019-06-08T20:49:09.727Z,970.99
2019-06-08T20:50:09.689Z,971.00
2019-06-08T20:51:09.642Z,970.97
2019-06-08T20:52:09.604Z,971.00
2019-06-08T20:53:09.597Z,971.01
2019-06-08T20:54:09.536Z,971.01
2019-06-08T20:55:09.472Z,970.97
2019-06-08T20:56:09.430Z,970.99
2019-06-08T20:57:09.397Z,971.02
2019-06-08T20:58:09.347Z,970.99
2019-06-08T20:59:09.342Z,970.99
2019-06-08T21:00:11.704Z,971.02
2019-06-08T21:01:09.222Z,971.05
2019-06-08T21:02:09.179Z,971.02
2019-06-08T21:03:09.136Z,970.99
2019-06-08T21:04:09.096Z,971.00
2019-06-08T21:05:09.076Z,971.05
2019-06-08T21:06:09.012Z,971.04
2019-06-08T21:07:08.965Z,971.06
2019-06-08T21:08:08.961Z,971.00
2019-06-08T21:09:08.881Z,971.02
2019-06-08T21:10:08.848Z,971.02
2019-06-08T21:11:08.805Z,970.99
2019-06-08T21:12:08.757Z,970.98
2019-06-08T21:13:08.721Z,971.01
2019-06-08T21:14:08.698Z,970.97
2019-06-08T21:15:08.627Z,970.97
2019-06-08T21:16:08.593Z,970.95
2019-06-08T21:17:08.540Z,970.96
2019-06-08T21:18:08.527Z,970.94
2019-06-08T21:19:08.456Z,970.95
2019-06-08T21:20:08.626Z,970.92
2019-06-08T21:21:08.370Z,970.91
2019-06-08T21:22:08.373Z,970.88
2019-06-08T21:23:08.393Z,971.00
2019-06-08T21:24:08.240Z,971.00
2019-06-08T21:25:08.638Z,971.03
2019-06-08T21:26:08.186Z,971.04
2019-06-08T21:27:08.311Z,970.99
2019-06-08T21:28:08.100Z,970.99
2019-06-08T21:29:08.342Z,970.98
2019-06-08T21:30:19.929Z,970.96
2019-06-08T21:31:08.507Z,970.95
2019-06-08T21:32:08.237Z,970.98
2019-06-08T21:33:08.265Z,970.99
2019-06-08T21:34:07.811Z,971.01
2019-06-08T21:35:08.839Z,971.01
2019-06-08T21:36:08.692Z,970.98
2019-06-08T21:37:09.173Z,970.99
2019-06-08T21:38:22.568Z,970.99
2019-06-08T21:39:08.311Z,970.98
2019-06-08T21:40:08.583Z,970.99